Time;durP1;ratioP1;P1;durP2;ratioP2;P2;SDS_P1;SDS_P2;PMS_P1;PMS_P2;Temp;Humidity;BMP_temperature;BMP_pressure;BME280_temperature;BME280_humidity;BME280_pressure;Samples;Min_cycle;Max_cycle;Signal;HPM_P1;HPM_P2
2022/08/07 00:01:56;;;;;;;8.93;7.65;;;;;;;25.38;nan;94850.00;4982964;28;20262;-71
2022/08/07 00:04:22;;;;;;;8.52;7.80;;;;;;;25.19;nan;94852.72;4981695;28;20303;-71
2022/08/07 00:06:50;;;;;;;8.73;7.93;;;;;;;24.97;nan;94846.94;4980577;28;22145;-71
2022/08/07 00:09:17;;;;;;;10.38;8.00;;;;;;;24.85;nan;94845.44;4981562;28;20209;-70
2022/08/07 00:11:44;;;;;;;14.98;8.55;;;;;;;25.17;nan;94849.44;4981865;28;20215;-71
2022/08/07 00:14:11;;;;;;;9.07;8.35;;;;;;;25.44;nan;94849.41;4984777;28;20322;-73
2022/08/07 00:16:37;;;;;;;8.65;7.95;;;;;;;;;;4986563;28;20481;-72
2022/08/07 00:19:04;;;;;;;8.73;7.93;;;;;;;25.05;nan;94844.41;4985022;28;20204;-70
2022/08/07 00:21:31;;;;;;;10.63;8.40;;;;;;;24.38;nan;94857.63;4986971;28;20211;-71
2022/08/07 00:23:59;;;;;;;8.73;8.05;;;;;;;24.37;nan;94855.97;4988789;28;20211;-73
2022/08/07 00:26:26;;;;;;;10.73;8.20;;;;;;;24.32;nan;94817.44;4984206;28;20269;-72
2022/08/07 00:28:53;;;;;;;8.23;7.63;;;;;;;24.02;nan;94769.09;4987760;28;20236;-72
2022/08/07 00:31:19;;;;;;;11.50;7.90;;;;;;;23.86;nan;94773.22;4982543;28;20277;-70
2022/08/07 00:33:46;;;;;;;8.15;7.55;;;;;;;23.84;nan;94788.13;4986024;28;20215;-72
2022/08/07 00:36:13;;;;;;;8.90;8.02;;;;;;;23.87;nan;94790.44;4985167;28;20235;-71
2022/08/07 00:38:40;;;;;;;8.60;7.82;;;;;;;23.88;nan;94803.28;4986370;28;20216;-69
2022/08/07 00:41:08;;;;;;;8.45;7.50;;;;;;;24.09;nan;94779.75;4984932;28;20204;-70
2022/08/07 00:43:35;;;;;;;13.20;8.90;;;;;;;24.02;nan;94782.06;4988706;28;20703;-72
2022/08/07 00:46:02;;;;;;;9.77;7.88;;;;;;;23.96;nan;94779.22;4986203;28;20231;-70
2022/08/07 00:48:29;;;;;;;12.65;7.63;;;;;;;24.34;nan;94779.16;4985729;28;20313;-68
2022/08/07 00:50:56;;;;;;;8.20;7.70;;;;;;;24.75;nan;94777.88;4986489;28;21740;-69
2022/08/07 00:53:23;;;;;;;8.73;7.97;;;;;;;24.50;nan;94782.94;4987555;28;20208;-71
2022/08/07 00:55:51;;;;;;;9.68;8.07;;;;;;;24.66;nan;94783.16;4986889;28;20598;-72
2022/08/07 00:58:21;;;;;;;8.82;8.02;;;;;;;24.98;nan;94774.97;4984259;28;20216;-72
2022/08/07 01:00:49;;;;;;;8.90;7.82;;;;;;;25.22;nan;94779.59;4988252;28;20755;-71
2022/08/07 01:03:16;;;;;;;8.70;7.82;;;;;;;25.20;nan;94781.53;4986354;28;20729;-71
2022/08/07 01:05:44;;;;;;;8.80;8.07;;;;;;;24.42;nan;94776.69;4985791;28;20725;-69
2022/08/07 01:08:11;;;;;;;8.52;7.90;;;;;;;24.23;nan;94787.09;4987014;28;20208;-71
2022/08/07 01:10:39;;;;;;;12.82;8.85;;;;;;;24.45;nan;94782.56;4988278;28;20208;-69
2022/08/07 01:13:06;;;;;;;11.18;7.88;;;;;;;24.85;nan;94783.06;4985364;28;20293;-72
2022/08/07 01:15:35;;;;;;;8.48;7.35;;;;;;;25.20;nan;94776.31;4987056;28;20281;-72
2022/08/07 01:18:02;;;;;;;8.95;8.23;;;;;;;25.37;nan;94778.13;4985890;28;20228;-71
2022/08/07 01:20:34;;;;;;;10.25;9.13;;;;;;;24.78;nan;94787.19;4984693;28;20204;-71
2022/08/07 01:23:04;;;;;;;9.32;7.63;;;;;;;24.29;nan;94799.53;4987451;28;20319;-71
2022/08/07 01:25:32;;;;;;;9.05;8.45;;;;;;;24.10;nan;94802.16;4987568;28;20270;-71
2022/08/07 01:27:58;;;;;;;8.82;8.23;;;;;;;24.25;nan;94798.16;4986406;28;20859;-70
2022/08/07 01:30:27;;;;;;;9.60;7.72;;;;;;;24.74;nan;94793.66;4986243;28;20685;-71
2022/08/07 01:32:53;;;;;;;9.13;8.52;;;;;;;25.10;nan;94784.19;4987186;28;20202;-70
2022/08/07 01:35:21;;;;;;;8.63;7.90;;;;;;;25.26;nan;94786.13;4986005;28;20216;-72
2022/08/07 01:37:48;;;;;;;7.45;6.95;;;;;;;25.24;nan;94799.25;4985570;28;21824;-69
2022/08/07 01:40:20;;;;;;;9.05;7.50;;;;;;;25.12;nan;94794.44;4986732;28;20259;-71
2022/08/07 01:42:47;;;;;;;9.25;8.48;;;;;;;25.05;nan;94799.38;4986944;28;20255;-71
2022/08/07 01:45:14;;;;;;;8.40;7.65;;;;;;;25.07;nan;94797.47;4983778;28;20697;-71
2022/08/07 01:47:41;;;;;;;8.70;7.97;;;;;;;24.94;nan;94812.56;4986582;28;20204;-71
2022/08/07 01:50:09;;;;;;;8.68;8.02;;;;;;;24.91;nan;94826.66;4985337;28;20201;-69
2022/08/07 01:52:39;;;;;;;8.27;7.68;;;;;;;24.90;nan;94834.63;4986766;28;20215;-72
2022/08/07 01:55:10;;;;;;;8.70;7.97;;;;;;;24.72;nan;94844.94;4986833;28;20951;-70
2022/08/07 01:57:41;;;;;;;7.65;6.82;;;;;;;24.74;nan;94864.66;4984651;28;20665;-73
2022/08/07 02:00:11;;;;;;;20.13;8.98;;;;;;;24.72;nan;94967.91;4986119;28;20759;-73
2022/08/07 02:02:43;;;;;;;8.60;7.80;;;;;;;23.92;nan;94981.13;4985963;28;20291;-72
2022/08/07 02:05:14;;;;;;;8.38;7.78;;;;;;;23.82;nan;94974.28;4984722;28;21504;-69
2022/08/07 02:07:48;;;;;;;9.40;8.50;;;;;;;23.73;nan;94981.09;4984634;28;20685;-71
2022/08/07 02:10:17;;;;;;;9.02;8.25;;;;;;;23.81;nan;94983.00;4984973;28;20672;-72
2022/08/07 02:12:46;;;;;;;8.85;8.25;;;;;;;;;;4983986;28;20234;-71
2022/08/07 02:15:14;;;;;;;8.50;7.72;;;;;;;;;;4987100;28;22835;-70
2022/08/07 02:17:43;;;;;;;9.52;7.47;;;;;;;23.41;nan;94955.31;4986808;28;20288;-72
2022/08/07 02:20:14;;;;;;;7.60;6.90;;;;;;;23.19;nan;94968.47;4984245;28;20220;-71
2022/08/07 02:22:42;;;;;;;7.32;6.82;;;;;;;23.08;nan;94972.78;4985660;28;20212;-70
2022/08/07 02:25:10;;;;;;;7.78;7.18;;;;;;;;;;4983988;28;20314;-70
2022/08/07 02:27:37;;;;;;;7.85;7.35;;;;;;;;;;4984154;28;20269;-71
2022/08/07 02:30:06;;;;;;;7.72;7.03;;;;;;;;;;4978697;28;20208;-70
2022/08/07 02:32:34;;;;;;;7.30;6.32;;;;;;;;;;4978617;28;20208;-71
2022/08/07 02:35:03;;;;;;;7.28;6.57;;;;;;;;;;4980177;28;20196;-69
2022/08/07 02:37:30;;;;;;;7.53;6.88;;;;;;;;;;4986181;28;20322;-72
2022/08/07 02:39:58;;;;;;;7.07;6.18;;;;;;;;;;4982558;28;20238;-71
2022/08/07 02:42:25;;;;;;;8.00;7.40;;;;;;;;;;4986558;28;20300;-71
2022/08/07 02:44:53;;;;;;;8.73;7.85;;;;;;;;;;4983589;28;20212;-68
2022/08/07 02:47:22;;;;;;;8.45;7.65;;;;;;;-142.91;nan;109039.41;4985282;28;20289;-71
2022/08/07 02:49:49;;;;;;;10.70;7.30;;;;;;;22.88;nan;94920.97;4984583;28;20227;-71
2022/08/07 02:52:21;;;;;;;7.50;6.90;;;;;;;23.24;nan;94927.41;4985001;28;20756;-73
2022/08/07 02:54:50;;;;;;;7.97;7.03;;;;;;;22.99;nan;94919.13;4985302;28;20247;-70
2022/08/07 02:57:20;;;;;;;8.55;7.80;;;;;;;22.49;nan;94919.94;4985313;28;20673;-71
2022/08/07 02:59:49;;;;;;;7.47;6.97;;;;;;;22.49;nan;94917.34;4986050;28;20211;-72
2022/08/07 03:02:16;;;;;;;8.05;7.35;;;;;;;;;;4986082;28;20199;-72
2022/08/07 03:04:45;;;;;;;8.15;7.43;;;;;;;;;;4984197;28;21496;-69
2022/08/07 03:07:13;;;;;;;8.63;7.90;;;;;;;22.90;nan;94883.63;4985734;28;20739;-69
2022/08/07 03:09:41;;;;;;;8.48;7.65;;;;;;;22.83;nan;94898.03;4985229;28;20208;-73
2022/08/07 03:12:09;;;;;;;8.80;7.85;;;;;;;;;;4986439;28;20677;-68
2022/08/07 03:14:36;;;;;;;8.90;8.02;;;;;;;23.31;nan;94907.75;4986172;28;20199;-72
2022/08/07 03:17:03;;;;;;;8.60;7.75;;;;;;;23.77;nan;94896.00;4983274;28;20225;-69
2022/08/07 03:19:30;;;;;;;8.20;7.65;;;;;;;;;;4986570;28;20208;-72
2022/08/07 03:21:59;;;;;;;8.77;8.27;;;;;;;23.71;nan;94906.00;4986994;28;20527;-74
2022/08/07 03:24:26;;;;;;;7.93;7.38;;;;;;;23.97;nan;94906.28;4986676;28;20226;-70
2022/08/07 03:26:54;;;;;;;8.30;7.50;;;;;;;23.89;nan;94898.34;4982919;28;20223;-72
2022/08/07 03:29:21;;;;;;;9.13;8.40;;;;;;;24.09;nan;94906.94;4983955;28;20205;-73
2022/08/07 03:31:50;;;;;;;8.35;7.55;;;;;;;24.21;nan;94897.25;4985160;28;20196;-71
2022/08/07 03:34:19;;;;;;;11.20;7.95;;;;;;;24.40;nan;94908.47;4980205;28;20208;-69
2022/08/07 03:36:46;;;;;;;8.60;7.80;;;;;;;24.57;nan;94896.53;4979611;28;20708;-72
2022/08/07 03:39:17;;;;;;;7.75;7.25;;;;;;;24.74;nan;94897.59;4977333;28;20230;-69
2022/08/07 03:41:44;;;;;;;8.43;7.85;;;;;;;24.77;nan;94905.09;4982610;28;20208;-71
2022/08/07 03:44:12;;;;;;;8.52;7.95;;;;;;;24.84;nan;94905.34;4983377;28;20334;-70
2022/08/07 03:46:40;;;;;;;7.88;7.28;;;;;;;24.94;nan;94895.75;4984009;28;20208;-69
2022/08/07 03:49:09;;;;;;;7.90;7.30;;;;;;;25.20;nan;94911.56;4981430;28;20295;-73
2022/08/07 03:51:36;;;;;;;7.78;7.20;;;;;;;;;;4987409;28;20222;-71
2022/08/07 03:54:04;;;;;;;8.05;7.50;;;;;;;25.32;nan;94915.59;4991402;28;20216;-72
2022/08/07 03:56:33;;;;;;;6.63;5.90;;;;;;;;;;4989391;28;20204;-69
2022/08/07 03:59:02;;;;;;;6.57;6.18;;;;;;;24.72;nan;94934.13;4988220;28;20504;-71
2022/08/07 04:01:31;;;;;;;8.73;7.47;;;;;;;24.85;nan;94928.59;4988904;28;20215;-72
2022/08/07 04:03:59;;;;;;;8.65;6.97;;;;;;;25.19;nan;94915.13;4987648;28;20203;-71
2022/08/07 04:06:26;;;;;;;7.43;6.93;;;;;;;25.32;nan;94919.00;4986700;28;20235;-72
2022/08/07 04:08:54;;;;;;;8.32;7.55;;;;;;;25.43;nan;94912.81;4988946;28;20199;-73
2022/08/07 04:11:21;;;;;;;7.35;6.75;;;;;;;25.51;nan;94915.50;4988346;28;20208;-71
2022/08/07 04:13:50;;;;;;;6.88;6.45;;;;;;;25.57;nan;94927.94;4989324;28;20246;-72
2022/08/07 04:16:16;;;;;;;7.25;6.75;;;;;;;;;;4988263;28;20208;-68
2022/08/07 04:18:43;;;;;;;7.60;7.18;;;;;;;26.05;nan;94939.84;4988736;28;20269;-72
2022/08/07 04:21:10;;;;;;;7.15;6.75;;;;;;;26.11;nan;94944.47;4989369;28;20208;-73
2022/08/07 04:23:38;;;;;;;7.47;6.85;;;;;;;26.01;nan;94939.31;4987836;28;20208;-72
2022/08/07 04:26:06;;;;;;;6.68;6.05;;;;;;;25.97;nan;94937.16;4990128;28;20223;-69
2022/08/07 04:28:33;;;;;;;7.60;7.00;;;;;;;;;;4989319;28;20806;-73
2022/08/07 04:31:01;;;;;;;6.90;6.22;;;;;;;26.04;nan;94948.63;4993314;28;20711;-71
2022/08/07 04:33:29;;;;;;;7.30;6.88;;;;;;;26.10;nan;94951.44;4990372;28;20207;-72
2022/08/07 04:35:56;;;;;;;7.03;6.53;;;;;;;25.95;nan;94965.16;4989086;28;20275;-70
2022/08/07 04:38:24;;;;;;;6.97;6.40;;;;;;;;;;4987212;28;20352;-70
2022/08/07 04:40:51;;;;;;;7.97;7.28;;;;;;;25.84;nan;94955.75;4989481;28;20254;-72
2022/08/07 04:43:20;;;;;;;8.05;7.45;;;;;;;25.84;nan;94957.53;4989409;28;20208;-70
2022/08/07 04:45:55;;;;;;;8.32;7.78;;;;;;;25.74;nan;94953.19;4988843;28;20208;-69
2022/08/07 04:48:30;;;;;;;9.40;8.60;;;;;;;25.82;nan;94943.84;4989701;28;20198;-68
2022/08/07 04:51:03;;;;;;;11.27;10.15;;;;;;;25.93;nan;94954.88;4987920;28;20206;-72
2022/08/07 04:53:37;;;;;;;9.18;8.30;;;;;;;25.91;nan;94963.78;4986799;28;20211;-71
2022/08/07 04:56:08;;;;;;;10.88;9.80;;;;;;;;;;4987376;28;20203;-70
2022/08/07 04:58:37;;;;;;;9.75;9.05;;;;;;;;;;4989627;28;20655;-75
2022/08/07 05:01:07;;;;;;;8.82;8.10;;;;;;;;;;4986282;28;20337;-71
2022/08/07 05:03:45;;;;;;;7.35;6.55;;;;;;;27.43;nan;94959.94;4988547;28;20250;-72
2022/08/07 05:06:16;;;;;;;7.38;6.80;;;;;;;29.32;nan;94960.00;4990274;28;20219;-73
2022/08/07 05:08:49;;;;;;;8.20;7.70;;;;;;;29.44;nan;94963.94;4986870;28;20215;-71
2022/08/07 05:11:21;;;;;;;7.43;6.68;;;;;;;28.88;nan;94968.28;4986405;28;20302;-73
2022/08/07 05:13:57;;;;;;;7.43;6.93;;;;;;;28.35;nan;94953.06;4989449;28;20244;-71
2022/08/07 05:16:26;;;;;;;7.97;7.38;;;;;;;28.51;nan;94965.31;4988663;28;20294;-70
2022/08/07 05:18:57;;;;;;;9.48;7.32;;;;;;;29.71;nan;94971.31;4988562;28;20251;-71
2022/08/07 05:21:28;;;;;;;7.40;6.93;;;;;;;30.92;nan;94971.56;4986607;28;20227;-73
2022/08/07 05:23:59;;;;;;;7.65;6.78;;;;;;;31.87;nan;94923.59;4987266;28;20207;-70
2022/08/07 05:26:27;;;;;;;7.80;6.90;;;;;;;;;;4987055;28;20767;-71
2022/08/07 05:28:57;;;;;;;7.30;6.57;;;;;;;34.43;nan;94961.44;4984023;28;20713;-69
2022/08/07 05:31:27;;;;;;;8.43;6.93;;;;;;;36.56;nan;94952.88;4984915;28;20204;-72
2022/08/07 05:33:57;;;;;;;8.38;7.55;;;;;;;37.94;nan;94950.78;4984060;28;20258;-70
2022/08/07 05:36:25;;;;;;;7.32;6.82;;;;;;;39.35;nan;94952.00;4985814;28;20638;-71
2022/08/07 05:38:53;;;;;;;7.68;7.07;;;;;;;40.85;nan;94951.78;4986454;28;20227;-74
2022/08/07 05:41:21;;;;;;;7.75;7.07;;;;;;;41.45;nan;94933.22;4985333;28;20271;-73
2022/08/07 05:43:52;;;;;;;7.18;6.47;;;;;;;41.10;nan;94944.16;4985572;28;21859;-71
2022/08/07 05:46:21;;;;;;;7.07;6.68;;;;;;;41.70;nan;94959.47;4986130;28;20231;-70
2022/08/07 05:48:49;;;;;;;7.05;6.43;;;;;;;41.53;nan;94963.22;4988681;28;20639;-70
2022/08/07 05:51:19;;;;;;;7.32;6.07;;;;;;;41.76;nan;94953.16;4985851;28;20219;-72
2022/08/07 05:53:46;;;;;;;6.93;6.13;;;;;;;41.85;nan;94966.03;4986115;28;20204;-72
2022/08/07 05:56:15;;;;;;;7.50;6.88;;;;;;;41.93;nan;94962.94;4986770;28;20209;-72
2022/08/07 05:58:45;;;;;;;6.68;6.28;;;;;;;42.04;nan;94964.72;4985012;28;20281;-72
2022/08/07 06:01:14;;;;;;;6.90;6.45;;;;;;;41.94;nan;94980.56;4985238;28;20208;-73
2022/08/07 06:03:45;;;;;;;6.70;6.30;;;;;;;41.08;nan;94980.91;4984614;28;20259;-72
2022/08/07 06:06:12;;;;;;;6.07;5.78;;;;;;;38.54;nan;94988.00;4984707;28;20247;-71
2022/08/07 06:08:42;;;;;;;6.30;5.90;;;;;;;39.72;nan;94998.56;4982974;28;21792;-70
2022/08/07 06:11:09;;;;;;;6.72;6.15;;;;;;;39.93;nan;94991.03;4985957;28;20301;-70
2022/08/07 06:13:36;;;;;;;6.30;5.93;;;;;;;41.23;nan;94990.25;4984382;28;20671;-74
2022/08/07 06:16:06;;;;;;;7.65;6.95;;;;;;;41.33;nan;94993.09;4986378;28;20216;-69
2022/08/07 06:18:33;;;;;;;7.10;6.70;;;;;;;40.69;nan;94995.97;4983523;28;20837;-71
2022/08/07 06:21:01;;;;;;;8.02;6.70;;;;;;;40.51;nan;94995.41;4987183;28;20223;-72
2022/08/07 06:23:28;;;;;;;7.30;6.90;;;;;;;39.74;nan;95009.00;4984656;28;20991;-70
2022/08/07 06:25:56;;;;;;;7.28;6.88;;;;;;;40.12;nan;95006.59;4987346;28;20210;-71
2022/08/07 06:28:23;;;;;;;6.28;5.85;;;;;;;40.95;nan;94988.44;4984359;28;20203;-71
2022/08/07 06:30:51;;;;;;;7.68;7.22;;;;;;;40.34;nan;94998.81;4981228;28;20220;-69
2022/08/07 06:33:19;;;;;;;7.53;7.00;;;;;;;40.81;nan;94990.63;4987395;28;20230;-74
2022/08/07 06:35:46;;;;;;;8.38;6.75;;;;;;;41.11;nan;94993.78;4986543;28;20204;-73
2022/08/07 06:38:13;;;;;;;8.10;7.60;;;;;;;39.98;nan;94993.81;4985263;28;20220;-72
2022/08/07 06:40:45;;;;;;;7.00;6.50;;;;;;;36.99;nan;94995.34;4983886;28;20302;-72
2022/08/07 06:43:16;;;;;;;8.63;6.53;;;;;;;35.97;nan;95006.09;4983053;28;20225;-72
2022/08/07 06:45:43;;;;;;;7.25;6.75;;;;;;;34.83;nan;94993.22;4984196;28;20212;-72
2022/08/07 06:48:10;;;;;;;7.82;7.32;;;;;;;35.54;nan;95001.31;4984760;28;20209;-70
2022/08/07 06:50:39;;;;;;;7.68;6.95;;;;;;;34.55;nan;94995.19;4983928;28;20203;-70
2022/08/07 06:53:08;;;;;;;7.63;7.07;;;;;;;34.05;nan;95003.34;4983874;28;20203;-68
2022/08/07 06:55:36;;;;;;;7.80;7.20;;;;;;;;;;4984994;28;20207;-72
2022/08/07 06:58:05;;;;;;;7.65;7.25;;;;;;;34.66;nan;95008.56;4985593;28;20210;-71
2022/08/07 07:00:39;;;;;;;8.00;7.32;;;;;;;34.27;nan;95003.19;4983087;28;20638;-71
2022/08/07 07:03:07;;;;;;;6.97;6.47;;;;;;;34.82;nan;95002.16;4982636;28;20227;-72
2022/08/07 07:05:34;;;;;;;7.13;6.72;;;;;;;35.00;nan;95010.28;4983473;28;21671;-72
2022/08/07 07:08:01;;;;;;;8.38;7.50;;;;;;;35.18;nan;95001.72;4983073;28;20577;-71
2022/08/07 07:10:29;;;;;;;7.50;7.00;;;;;;;35.44;nan;95011.47;4981795;28;20207;-72
2022/08/07 07:13:00;;;;;;;7.43;6.93;;;;;;;34.41;nan;95010.16;4982766;28;20361;-72
2022/08/07 07:15:30;;;;;;;14.25;7.38;;;;;;;33.77;nan;95002.56;4983229;28;20218;-71
2022/08/07 07:18:03;;;;;;;7.70;7.10;;;;;;;32.04;nan;95004.69;4982593;28;20196;-70
2022/08/07 07:20:34;;;;;;;7.50;6.90;;;;;;;31.87;nan;94992.75;4983348;28;20222;-73
2022/08/07 07:23:02;;;;;;;8.88;8.15;;;;;;;32.30;nan;94998.13;4982321;28;20216;-69
2022/08/07 07:25:30;;;;;;;7.70;7.30;;;;;;;32.28;nan;95011.44;4980263;28;21230;-71
2022/08/07 07:28:00;;;;;;;7.80;7.30;;;;;;;31.72;nan;95007.69;4981756;28;20204;-69
2022/08/07 07:30:32;;;;;;;7.72;7.10;;;;;;;31.21;nan;95012.81;4982481;28;20212;-70
2022/08/07 07:33:03;;;;;;;7.97;7.35;;;;;;;30.95;nan;95010.56;4982011;28;20216;-70
2022/08/07 07:35:33;;;;;;;8.23;7.28;;;;;;;31.22;nan;95016.25;4981664;28;20199;-70
2022/08/07 07:38:02;;;;;;;14.02;12.55;;;;;;;31.07;nan;95009.16;4981193;28;20760;-72
2022/08/07 07:40:31;;;;;;;26.58;24.00;;;;;;;30.81;nan;95011.34;4980165;28;20235;-70
2022/08/07 07:43:02;;;;;;;8.13;7.63;;;;;;;31.05;nan;95016.38;4980437;28;20200;-70
2022/08/07 07:45:30;;;;;;;7.05;6.65;;;;;;;30.84;nan;95016.25;4984232;28;20298;-69
2022/08/07 07:47:58;;;;;;;7.63;7.13;;;;;;;31.17;nan;95023.88;4982632;28;20207;-68
2022/08/07 07:50:28;;;;;;;7.75;7.13;;;;;;;31.29;nan;95004.88;4982341;28;20284;-71
2022/08/07 07:52:56;;;;;;;118.22;72.97;;;;;;;31.17;nan;95003.69;4982114;28;20664;-74
2022/08/07 07:55:26;;;;;;;8.98;8.15;;;;;;;30.73;nan;95014.03;4984714;28;22173;-69
2022/08/07 07:57:56;;;;;;;8.05;7.35;;;;;;;30.25;nan;95010.72;4986083;28;20214;-69
2022/08/07 08:00:25;;;;;;;8.40;7.65;;;;;;;29.96;nan;95015.75;4983139;28;20820;-73
2022/08/07 08:02:55;;;;;;;8.55;7.95;;;;;;;29.91;nan;95012.84;4980767;28;20203;-68
2022/08/07 08:05:24;;;;;;;9.07;8.13;;;;;;;29.84;nan;95017.13;4978565;28;21060;-69
2022/08/07 08:07:52;;;;;;;10.25;9.55;;;;;;;29.81;nan;95026.16;4983625;28;20214;-69
2022/08/07 08:10:20;;;;;;;10.60;9.80;;;;;;;30.33;nan;95018.53;4982457;28;20239;-71
2022/08/07 08:12:48;;;;;;;10.98;10.02;;;;;;;30.17;nan;95012.59;4982581;28;20362;-73
2022/08/07 08:15:15;;;;;;;13.00;11.82;;;;;;;30.53;nan;95024.16;4986518;28;21370;-70
2022/08/07 08:17:44;;;;;;;10.10;9.40;;;;;;;30.01;nan;95029.19;4981155;28;20631;-70
2022/08/07 08:20:15;;;;;;;10.90;10.10;;;;;;;29.98;nan;95019.03;4983417;28;21963;-73
2022/08/07 08:28:22;;;;;;;11.88;10.60;;;;;;;29.47;nan;95020.34;4981351;28;20242;-68
2022/08/07 08:30:53;;;;;;;12.80;11.77;;;;;;;29.77;nan;95025.66;4982295;28;20725;-70
2022/08/07 08:33:22;;;;;;;11.43;10.45;;;;;;;30.12;nan;95031.44;4983712;28;21656;-70
2022/08/07 08:35:51;;;;;;;10.80;10.00;;;;;;;30.37;nan;95016.41;4983182;28;20696;-68
2022/08/07 08:38:22;;;;;;;11.10;10.07;;;;;;;30.35;nan;95037.53;4988135;28;20243;-68
2022/08/07 08:40:56;;;;;;;10.60;9.60;;;;;;;30.71;nan;95026.50;4984508;28;20334;-69
2022/08/07 08:43:31;;;;;;;10.38;9.30;;;;;;;30.37;nan;95019.84;4985114;28;20208;-69
2022/08/07 08:46:08;;;;;;;10.38;9.35;;;;;;;30.09;nan;95021.31;4984171;28;22190;-68
2022/08/07 08:48:41;;;;;;;10.23;9.43;;;;;;;29.81;nan;95033.19;4988012;28;20199;-70
2022/08/07 08:51:16;;;;;;;8.50;7.63;;;;;;;29.95;nan;95032.47;4986193;28;20208;-70
2022/08/07 08:53:47;;;;;;;9.00;8.10;;;;;;;29.31;nan;95032.47;4987866;28;20206;-71
2022/08/07 08:56:23;;;;;;;9.35;7.53;;;;;;;29.16;nan;95035.94;4986146;28;20214;-69
2022/08/07 08:58:55;;;;;;;8.60;7.85;;;;;;;29.28;nan;95026.75;4983801;28;20239;-69
2022/08/07 09:01:24;;;;;;;9.43;8.68;;;;;;;;;;4983918;28;20292;-71
2022/08/07 09:03:58;;;;;;;11.13;8.38;;;;;;;29.34;nan;95020.84;4988832;28;20215;-70
2022/08/07 09:06:40;;;;;;;25.20;21.90;;;;;;;29.99;nan;95015.44;4985235;28;20222;-69
2022/08/07 09:09:20;;;;;;;15.93;14.38;;;;;;;30.46;nan;95015.34;4986032;28;20227;-70
2022/08/07 09:11:53;;;;;;;8.82;8.20;;;;;;;30.34;nan;95004.44;4985852;28;20218;-73
2022/08/07 09:14:32;;;;;;;8.05;7.55;;;;;;;30.77;nan;95012.69;4985811;28;20247;-70
2022/08/07 09:17:09;;;;;;;7.50;7.10;;;;;;;30.69;nan;95021.44;4986151;28;20208;-73
2022/08/07 09:19:46;;;;;;;7.95;7.18;;;;;;;30.45;nan;95009.28;4984756;28;20223;-72
2022/08/07 09:22:29;;;;;;;7.22;6.82;;;;;;;30.29;nan;95006.75;4982879;28;20210;-68
2022/08/07 09:25:04;;;;;;;8.05;7.53;;;;;;;30.21;nan;95013.84;4979259;28;20219;-68
2022/08/07 09:27:42;;;;;;;8.65;8.13;;;;;;;30.16;nan;95010.97;4981379;28;20264;-69
2022/08/07 09:30:10;;;;;;;7.22;6.63;;;;;;;;;;4982544;28;20215;-68
2022/08/07 09:32:55;;;;;;;7.05;6.53;;;;;;;30.89;nan;95003.41;4984018;28;20752;-68
2022/08/07 09:35:33;;;;;;;8.18;7.70;;;;;;;30.63;nan;94993.28;4981938;28;20227;-68
2022/08/07 09:38:10;;;;;;;7.00;6.60;;;;;;;31.00;nan;94989.84;4984306;28;20269;-69
2022/08/07 09:40:47;;;;;;;8.45;7.90;;;;;;;31.20;nan;94984.94;4981137;28;20318;-68
2022/08/07 09:43:28;;;;;;;7.43;6.78;;;;;;;31.43;nan;94990.09;4984946;28;20204;-70
2022/08/07 09:46:01;;;;;;;8.05;7.35;;;;;;;;;;4981774;28;20214;-71
2022/08/07 09:48:36;;;;;;;7.60;7.10;;;;;;;30.91;nan;94985.69;4983642;28;20220;-72
2022/08/07 09:51:21;;;;;;;8.00;7.47;;;;;;;30.85;nan;94986.38;4983884;28;20222;-70
2022/08/07 09:53:52;;;;;;;9.75;9.05;;;;;;;31.11;nan;94986.00;4984558;28;20217;-71
2022/08/07 09:56:58;;;;;;;8.60;8.02;;;;;;;31.60;nan;94981.06;4986705;28;20281;-70
2022/08/07 09:59:58;;;;;;;7.07;6.57;;;;;;;31.10;nan;94979.94;4985981;28;20286;-71
2022/08/07 10:02:49;;;;;;;6.38;5.97;;;;;;;30.36;nan;94981.50;4985752;28;20283;-71
2022/08/07 10:05:52;;;;;;;8.48;7.78;;;;;;;30.75;nan;94973.50;4982926;28;20948;-71
2022/08/07 10:08:44;;;;;;;6.93;6.53;;;;;;;31.13;nan;94981.41;4982354;28;20614;-69
2022/08/07 10:11:21;;;;;;;7.72;6.10;;;;;;;30.89;nan;94953.56;4982636;28;20199;-69
2022/08/07 10:13:50;;;;;;;6.05;5.75;;;;;;;;;;4986344;28;20243;-69
2022/08/07 10:16:38;;;;;;;6.60;6.20;;;;;;;30.89;nan;94971.13;4983960;28;20194;-69
2022/08/07 10:19:25;;;;;;;9.23;6.75;;;;;;;31.29;nan;94970.72;4986694;28;20196;-69
2022/08/07 10:22:03;;;;;;;9.52;6.53;;;;;;;31.17;nan;94960.88;4983346;28;20214;-70
2022/08/07 10:24:50;;;;;;;5.90;5.60;;;;;;;30.95;nan;94981.69;4983347;28;20214;-71
2022/08/07 10:27:35;;;;;;;6.30;5.72;;;;;;;30.95;nan;94965.13;4982342;28;20212;-72
2022/08/07 10:30:08;;;;;;;6.70;6.30;;;;;;;31.16;nan;94961.88;4985839;28;20209;-71
2022/08/07 10:32:59;;;;;;;6.43;6.00;;;;;;;31.07;nan;94974.22;4984119;28;20673;-72
2022/08/07 10:35:30;;;;;;;6.90;6.55;;;;;;;31.23;nan;94974.06;4986295;28;22309;-71
2022/08/07 10:38:12;;;;;;;10.48;6.82;;;;;;;31.20;nan;94968.34;4983831;28;20594;-71
2022/08/07 10:40:48;;;;;;;7.45;6.72;;;;;;;31.39;nan;94957.34;4986416;28;20234;-71
2022/08/07 10:43:17;;;;;;;7.65;7.15;;;;;;;;;;4981298;28;21186;-70
2022/08/07 10:45:48;;;;;;;7.63;6.80;;;;;;;31.82;nan;94979.34;4986065;28;20223;-70
2022/08/07 10:48:24;;;;;;;7.63;6.95;;;;;;;;;;4981910;28;20296;-70
2022/08/07 10:50:55;;;;;;;7.18;6.55;;;;;;;32.08;nan;94963.06;4981846;28;20219;-71
2022/08/07 10:53:28;;;;;;;8.57;7.78;;;;;;;32.33;nan;94939.88;4981020;28;20670;-71
2022/08/07 10:56:04;;;;;;;9.43;8.63;;;;;;;32.36;nan;94986.88;4982003;28;20203;-70
2022/08/07 10:58:51;;;;;;;9.35;8.55;;;;;;;32.10;nan;94961.06;4980687;28;20218;-70
2022/08/07 11:01:29;;;;;;;6.13;5.82;;;;;;;31.14;nan;94959.41;4979980;28;20296;-72
2022/08/07 11:04:07;;;;;;;6.75;6.20;;;;;;;30.79;nan;94981.84;4983066;28;20215;-70
2022/08/07 11:06:41;;;;;;;7.82;7.22;;;;;;;30.52;nan;94979.72;4982328;28;21487;-71
2022/08/07 11:09:13;;;;;;;7.32;6.78;;;;;;;30.48;nan;94963.53;4981292;28;20689;-72
2022/08/07 11:11:46;;;;;;;7.38;6.88;;;;;;;30.82;nan;94965.75;4982687;28;20303;-70
2022/08/07 11:14:20;;;;;;;7.18;6.70;;;;;;;30.86;nan;94972.28;4980793;28;20301;-69
2022/08/07 11:16:51;;;;;;;6.95;6.55;;;;;;;31.15;nan;94971.53;4983625;28;20211;-71
2022/08/07 11:19:26;;;;;;;7.53;6.85;;;;;;;31.48;nan;94955.41;4981949;28;21272;-70
2022/08/07 11:22:02;;;;;;;8.05;7.47;;;;;;;31.63;nan;94953.63;4982563;28;20274;-70
2022/08/07 11:24:39;;;;;;;7.75;7.18;;;;;;;32.03;nan;94950.47;4982940;28;20513;-71
2022/08/07 11:27:12;;;;;;;15.73;14.25;;;;;;;31.14;nan;94954.16;4982000;28;20219;-69
2022/08/07 11:29:46;;;;;;;8.15;7.65;;;;;;;30.63;nan;94961.00;4981955;28;20200;-69
2022/08/07 11:32:18;;;;;;;9.15;7.18;;;;;;;30.67;nan;94957.84;4978612;28;20266;-69
2022/08/07 11:34:48;;;;;;;10.70;6.25;;;;;;;;;;4981840;28;20207;-69
2022/08/07 11:37:32;;;;;;;7.65;6.85;;;;;;;30.53;nan;94981.38;4981343;28;20210;-68
2022/08/07 11:40:11;;;;;;;13.27;7.75;;;;;;;29.66;nan;94962.38;4982364;28;20305;-69
2022/08/07 11:42:50;;;;;;;7.68;7.18;;;;;;;29.67;nan;94964.00;4979461;28;20273;-69
2022/08/07 11:45:28;;;;;;;7.90;7.20;;;;;;;29.58;nan;94976.31;4978537;28;20204;-67
2022/08/07 11:48:16;;;;;;;9.13;6.80;;;;;;;29.42;nan;94971.94;4978915;28;20218;-68
2022/08/07 11:50:57;;;;;;;8.15;7.53;;;;;;;29.36;nan;94972.59;4977865;28;20266;-68
2022/08/07 11:53:36;;;;;;;8.23;7.47;;;;;;;29.64;nan;94966.97;4979039;28;20192;-68
2022/08/07 11:56:20;;;;;;;7.75;7.03;;;;;;;29.69;nan;94973.31;4979516;28;20223;-68
2022/08/07 11:58:58;;;;;;;7.65;7.13;;;;;;;29.86;nan;94974.06;4982330;28;20577;-68
2022/08/07 12:01:38;;;;;;;8.20;7.57;;;;;;;30.04;nan;94971.19;4979806;28;20282;-68
2022/08/07 12:04:28;;;;;;;6.93;6.53;;;;;;;29.86;nan;94962.75;4983030;28;20272;-69
2022/08/07 12:07:02;;;;;;;7.97;7.28;;;;;;;29.90;nan;94964.88;4980473;28;20318;-68
2022/08/07 12:09:35;;;;;;;7.18;6.68;;;;;;;30.00;nan;94969.91;4981800;28;20662;-68
2022/08/07 12:12:07;;;;;;;8.55;7.80;;;;;;;29.77;nan;94969.84;4980842;28;20716;-68
2022/08/07 12:14:38;;;;;;;8.93;8.18;;;;;;;;;;4984438;28;20246;-68
2022/08/07 12:17:11;;;;;;;7.47;6.93;;;;;;;28.95;nan;94969.25;4984315;28;20207;-69
2022/08/07 12:19:59;;;;;;;7.57;6.95;;;;;;;28.66;nan;94969.72;4985790;28;20204;-68
2022/08/07 12:22:36;;;;;;;7.07;6.68;;;;;;;28.75;nan;94978.38;4982084;28;21489;-68
2022/08/07 12:28:00;;;;;;;8.27;7.57;;;;;;;28.79;nan;94979.69;4983356;28;20342;-68
2022/08/07 12:30:33;;;;;;;9.20;7.00;;;;;;;28.92;nan;94972.19;4983203;28;20208;-67
2022/08/07 12:33:04;;;;;;;7.72;6.95;;;;;;;28.84;nan;94966.97;4987089;28;20588;-68
2022/08/07 12:35:33;;;;;;;7.90;7.30;;;;;;;29.05;nan;94956.78;4982852;28;20793;-68